Rembert, South Carolina
Current Conditions -  °F | °C
As of 5:58 AM on Tuesday 21 Oct 2014 (Local Time) from KSSC Reporting Station
Clear Clear  
Wind Chill: 54°   Ceiling: Unl
Heat Index: 54°   Visibility: 10mi
Dew Point: 51°   Wind: 2mph
Humidity: 91%   Direction: NA
Pressure: 29.94"   Gusts: NA
Location:  34.1°N, 80.53°W
Report Text: KSSC 210958Z AUTO VRB02KT 10SM CLR 12/11 A2994 RMK AO2 SLP139 T01210106 $
Loading
Personal Weather Stations






























Interactive Weather Map
Tropical Storm Tracking
New forecast layout! Learn more

10-Day Weather Forecast

Advertisements
Track Severe Weather on mobile